Time;durP1;ratioP1;P1;durP2;ratioP2;P2;SDS_P1;SDS_P2;PMS_P1;PMS_P2;Temp;Humidity;BMP_temperature;BMP_pressure;BME280_temperature;BME280_humidity;BME280_pressure;Samples;Min_cycle;Max_cycle;Signal;HPM_P1;HPM_P2
2023/08/26 09:34:34;;;;;;;2.17;0.70;;;19.80;99.90;;;;;;6089925;22;1948098;-88
2023/08/26 09:37:00;;;;;;;3.20;0.88;;;19.70;99.90;;;;;;6089179;23;20377;-89
2023/08/26 09:39:26;;;;;;;3.03;0.60;;;19.80;99.90;;;;;;6092349;23;20385;-89
2023/08/26 10:02:43;;;;;;;6.07;2.25;;;18.90;99.90;;;;;;6124420;23;20410;-90
2023/08/26 10:05:16;;;;;;;5.53;3.10;;;19.20;99.90;;;;;;6096510;23;20778;-91
2023/08/26 10:07:47;;;;;;;4.53;2.92;;;18.90;99.90;;;;;;6121218;23;20648;-89
2023/08/26 10:10:16;;;;;;;5.00;3.10;;;19.00;99.90;;;;;;6094989;23;20375;-89
2023/08/26 10:12:44;;;;;;;5.60;4.18;;;19.30;99.90;;;;;;6121102;23;20403;-91
2023/08/26 10:15:16;;;;;;;5.73;4.80;;;19.10;99.90;;;;;;6095796;23;20426;-90
2023/08/26 10:17:46;;;;;;;7.30;5.05;;;19.20;99.90;;;;;;6120599;23;20421;-90
2023/08/26 10:20:12;;;;;;;7.03;4.93;;;19.20;99.90;;;;;;6121740;23;20425;-91
2023/08/26 10:22:38;;;;;;;7.37;4.47;;;19.20;99.90;;;;;;6120137;23;20375;-93
2023/08/26 10:25:05;;;;;;;5.25;2.47;;;19.50;99.90;;;;;;6097634;23;20402;-92
2023/08/26 10:27:32;;;;;;;4.30;1.98;;;19.30;99.90;;;;;;6094721;23;20375;-93
2023/08/26 10:29:59;;;;;;;3.10;1.40;;;19.40;99.90;;;;;;6096720;23;20383;-90
2023/08/26 10:32:27;;;;;;;3.75;1.20;;;19.40;99.90;;;;;;6096675;23;20371;-91
2023/08/26 10:34:58;;;;;;;5.13;1.20;;;19.70;99.90;;;;;;6096403;23;20410;-92
2023/08/26 10:37:30;;;;;;;3.13;1.37;;;20.00;99.90;;;;;;6098190;23;20764;-91
2023/08/26 10:39:56;;;;;;;3.55;1.40;;;19.50;99.90;;;;;;6096862;23;20418;-92
2023/08/26 10:42:23;;;;;;;2.35;1.30;;;19.50;99.90;;;;;;6099375;23;20371;-91
2023/08/26 10:44:56;;;;;;;3.22;1.23;;;19.90;99.90;;;;;;6121519;23;20787;-91
2023/08/26 10:47:39;;;;;;;3.25;1.30;;;20.30;99.90;;;;;;6123857;23;20383;-91
2023/08/26 10:50:19;;;;;;;3.10;1.10;;;20.20;99.90;;;;;;6099333;23;20394;-90
2023/08/26 10:52:45;;;;;;;2.60;0.88;;;20.50;99.90;;;;;;6097587;23;20918;-92
2023/08/26 10:55:21;;;;;;;2.30;1.35;;;21.00;99.90;;;;;;6099230;23;20382;-91
2023/08/26 10:58:17;;;;;;;2.80;1.25;;;21.40;99.90;;;;;;6097449;23;20872;-92
2023/08/26 11:00:47;;;;;;;2.63;1.20;;;21.70;99.90;;;;;;6098773;23;20706;-90
2023/08/26 11:03:16;;;;;;;3.03;1.10;;;22.10;99.90;;;;;;6123823;23;20505;-92
2023/08/26 11:05:47;;;;;;;2.67;1.63;;;22.50;99.90;;;;;;6097132;23;20517;-92
2023/08/26 11:08:13;;;;;;;2.90;1.70;;;23.00;95.80;;;;;;6099550;23;20390;-92
2023/08/26 11:10:41;;;;;;;2.70;1.60;;;23.10;94.10;;;;;;6098456;23;20382;-93
2023/08/26 11:13:11;;;;;;;2.50;1.90;;;23.00;92.80;;;;;;6123618;23;20367;-92
2023/08/26 11:15:43;;;;;;;3.70;2.60;;;22.90;90.70;;;;;;6099013;23;20383;-93
2023/08/26 11:18:10;;;;;;;2.80;2.60;;;22.90;99.20;;;;;;6098693;23;20379;-92
2023/08/26 11:20:37;;;;;;;3.30;2.30;;;22.80;96.50;;;;;;6099227;23;20375;-91
2023/08/26 11:23:05;;;;;;;3.08;2.47;;;22.50;96.50;;;;;;6097226;23;20377;-92
2023/08/26 11:25:33;;;;;;;3.75;2.90;;;22.20;98.20;;;;;;6124168;23;20874;-91
2023/08/26 11:28:13;;;;;;;3.70;3.15;;;21.90;95.20;;;;;;6121953;23;20383;-92
2023/08/26 11:30:41;;;;;;;3.60;3.30;;;21.60;97.80;;;;;;6124086;23;20390;-91
2023/08/26 11:33:15;;;;;;;2.97;2.67;;;21.80;99.90;;;;;;6098742;23;20791;-91
2023/08/26 11:35:43;;;;;;;3.38;1.80;;;21.20;98.70;;;;;;6097915;23;20378;-93
2023/08/26 11:38:08;;;;;;;2.28;0.85;;;21.20;99.90;;;;;;6099182;23;20417;-91
2023/08/26 11:40:35;;;;;;;3.33;0.90;;;20.90;97.80;;;;;;6121619;23;20383;-92
2023/08/26 11:43:08;;;;;;;2.58;0.80;;;21.30;98.70;;;;;;6123647;23;20402;-91
2023/08/26 11:45:41;;;;;;;2.60;0.63;;;20.90;99.90;;;;;;6097145;23;20383;-91
2023/08/26 11:48:12;;;;;;;1.55;0.50;;;21.20;99.90;;;;;;6099282;23;20966;-92
2023/08/26 11:50:39;;;;;;;1.88;0.50;;;21.60;98.80;;;;;;6098791;23;20383;-91
2023/08/26 11:53:05;;;;;;;1.98;0.50;;;21.80;94.40;;;;;;6121757;23;20406;-92
2023/08/26 11:55:33;;;;;;;2.95;0.50;;;22.30;97.60;;;;;;6098948;23;20409;-92
2023/08/26 11:58:00;;;;;;;2.13;0.30;;;22.10;85.60;;;;;;6097567;23;20446;-92
2023/08/26 12:00:27;;;;;;;1.60;0.50;;;22.00;81.10;;;;;;6099142;23;20382;-93
2023/08/26 12:03:02;;;;;;;2.00;0.30;;;21.80;87.80;;;;;;6097576;23;20379;-92
2023/08/26 12:05:39;;;;;;;2.83;0.30;;;21.50;88.90;;;;;;6099071;23;20400;-91
2023/08/26 12:08:11;;;;;;;3.08;0.38;;;21.20;92.30;;;;;;6099324;23;20386;-91
2023/08/26 12:10:37;;;;;;;1.90;0.30;;;21.20;98.10;;;;;;6097863;23;20720;-93
2023/08/26 12:13:06;;;;;;;2.72;0.35;;;21.50;98.20;;;;;;6123601;23;20382;-93
2023/08/26 12:15:31;;;;;;;1.70;0.30;;;21.60;94.90;;;;;;6121692;23;20424;-92
2023/08/26 12:18:00;;;;;;;2.38;0.40;;;21.60;91.80;;;;;;6098861;23;20454;-92
2023/08/26 12:20:30;;;;;;;1.48;0.30;;;21.70;92.70;;;;;;6121469;23;20394;-92
2023/08/26 12:22:59;;;;;;;1.70;0.38;;;21.60;96.60;;;;;;6098623;23;20379;-92
2023/08/26 12:25:27;;;;;;;2.35;0.30;;;21.80;95.60;;;;;;6099275;23;20394;-92
2023/08/26 12:28:09;;;;;;;2.10;0.38;;;21.90;90.30;;;;;;6121795;23;20383;-93
2023/08/26 12:30:40;;;;;;;1.80;0.40;;;22.00;91.90;;;;;;6099082;23;20469;-93
2023/08/26 12:33:06;;;;;;;2.30;0.40;;;22.30;90.00;;;;;;6096908;23;20371;-93
2023/08/26 12:35:36;;;;;;;2.40;0.30;;;22.30;90.60;;;;;;6123532;23;20871;-93
2023/08/26 12:38:03;;;;;;;2.25;0.30;;;22.60;82.10;;;;;;6097717;23;20658;-92
2023/08/26 12:40:33;;;;;;;2.42;0.30;;;22.30;77.50;;;;;;6098065;23;20386;-93
2023/08/26 12:43:04;;;;;;;1.77;0.30;;;22.60;83.40;;;;;;6123464;23;20383;-93
2023/08/26 12:45:31;;;;;;;1.85;0.20;;;22.50;90.20;;;;;;6096483;23;20398;-93
2023/08/26 12:47:57;;;;;;;2.47;0.20;;;22.00;76.90;;;;;;6098816;23;20382;-94
2023/08/26 12:50:23;;;;;;;2.83;0.20;;;22.20;78.90;;;;;;6096832;23;20378;-93
2023/08/26 12:52:49;;;;;;;1.42;0.20;;;22.10;82.60;;;;;;6098883;23;20868;-93
2023/08/26 12:55:16;;;;;;;1.48;0.20;;;21.60;85.40;;;;;;6121637;23;20708;-92
2023/08/26 12:57:42;;;;;;;1.50;0.15;;;21.40;90.00;;;;;;6097368;23;20417;-92
2023/08/26 13:00:09;;;;;;;2.50;0.20;;;21.10;90.70;;;;;;6098552;23;20462;-91
2023/08/26 13:02:36;;;;;;;2.42;0.30;;;21.10;90.20;;;;;;6120921;23;20375;-91
2023/08/26 13:05:09;;;;;;;1.73;0.20;;;21.00;96.60;;;;;;6123126;23;20713;-92
2023/08/26 13:07:35;;;;;;;1.33;0.30;;;21.00;99.90;;;;;;6097093;23;20383;-93
2023/08/26 13:10:02;;;;;;;1.90;0.40;;;20.80;99.90;;;;;;6099082;23;20371;-94
2023/08/26 13:12:28;;;;;;;1.30;0.30;;;21.30;99.90;;;;;;6097045;23;20371;-92
2023/08/26 13:14:53;;;;;;;1.83;0.30;;;21.50;99.30;;;;;;6123019;23;20890;-92
2023/08/26 13:17:19;;;;;;;1.37;0.20;;;21.60;99.90;;;;;;6122615;23;20451;-94
2023/08/26 13:19:45;;;;;;;2.00;0.30;;;21.60;99.90;;;;;;6096718;23;20924;-93
2023/08/26 13:22:10;;;;;;;2.67;0.30;;;21.80;89.70;;;;;;6098085;23;20407;-93
2023/08/26 13:24:36;;;;;;;1.38;0.30;;;22.00;96.80;;;;;;6096205;23;20399;-94
2023/08/26 13:27:03;;;;;;;1.90;0.20;;;22.10;92.60;;;;;;6098225;23;20386;-93
2023/08/26 13:29:29;;;;;;;1.92;0.28;;;22.30;87.10;;;;;;6096979;23;20374;-92
2023/08/26 13:31:54;;;;;;;1.25;0.28;;;22.70;91.60;;;;;;6122516;23;20421;-93
2023/08/26 13:34:20;;;;;;;1.80;0.30;;;23.00;80.30;;;;;;6097417;23;20383;-94
2023/08/26 13:36:47;;;;;;;2.20;0.40;;;23.50;79.40;;;;;;6097087;23;20402;-94
2023/08/26 13:39:13;;;;;;;2.20;0.55;;;23.80;74.00;;;;;;6122552;23;20433;-93
2023/08/26 13:41:38;;;;;;;1.50;0.45;;;23.50;74.40;;;;;;6120853;23;20379;-94
2023/08/26 13:44:04;;;;;;;1.33;0.53;;;23.40;72.80;;;;;;6098392;23;20402;-93
2023/08/26 13:46:30;;;;;;;1.67;0.45;;;23.50;70.20;;;;;;6095680;23;20407;-92
2023/08/26 13:48:58;;;;;;;1.23;0.40;;;23.60;70.40;;;;;;6098425;23;20378;-93
2023/08/26 13:51:23;;;;;;;1.02;0.30;;;24.10;65.80;;;;;;6120645;23;20383;-93
2023/08/26 13:53:49;;;;;;;3.50;0.30;;;24.80;66.70;;;;;;6098007;23;20700;-93
2023/08/26 13:56:15;;;;;;;0.95;0.10;;;25.10;61.90;;;;;;6097555;23;20385;-93
2023/08/26 13:58:40;;;;;;;1.85;0.10;;;24.90;56.20;;;;;;6096609;23;21032;-93
2023/08/26 14:01:06;;;;;;;0.90;0.10;;;24.70;57.00;;;;;;6098346;23;20386;-93
2023/08/26 14:03:31;;;;;;;0.50;0.10;;;24.70;57.60;;;;;;6120153;23;20398;-93
2023/08/26 14:05:57;;;;;;;0.80;0.10;;;24.80;56.60;;;;;;6098577;23;20399;-94
2023/08/26 14:08:23;;;;;;;0.45;0.10;;;25.10;55.70;;;;;;6095849;23;20385;-92
2023/08/26 14:10:49;;;;;;;0.98;0.10;;;25.30;56.80;;;;;;6098217;23;20389;-92
2023/08/26 14:13:15;;;;;;;0.93;0.10;;;25.60;55.50;;;;;;6096237;23;20387;-94
2023/08/26 14:15:42;;;;;;;0.57;0.10;;;25.70;53.50;;;;;;6097305;23;20378;-94
2023/08/26 14:18:08;;;;;;;0.85;0.15;;;25.60;54.80;;;;;;6098127;23;20383;-94
2023/08/26 14:20:34;;;;;;;1.17;0.10;;;25.90;54.10;;;;;;6095665;23;20374;-94
2023/08/26 14:23:00;;;;;;;1.30;0.20;;;25.90;52.80;;;;;;6098093;23;20921;-94
2023/08/26 14:25:27;;;;;;;0.70;0.10;;;25.60;54.20;;;;;;6095690;23;20379;-93
2023/08/26 14:27:53;;;;;;;0.85;0.30;;;25.40;53.30;;;;;;6097906;23;20379;-94
2023/08/26 14:30:19;;;;;;;1.40;0.20;;;25.30;52.60;;;;;;6096232;23;20374;-93
2023/08/26 14:32:45;;;;;;;1.40;0.20;;;25.00;53.50;;;;;;6121408;23;20407;-93
2023/08/26 14:35:11;;;;;;;1.38;0.20;;;24.70;56.70;;;;;;6097486;23;20387;-93
2023/08/26 14:37:36;;;;;;;1.67;0.30;;;24.30;58.10;;;;;;6096161;23;20371;-94
2023/08/26 14:40:02;;;;;;;0.70;0.30;;;23.90;59.50;;;;;;6122078;23;20450;-92
2023/08/26 14:42:28;;;;;;;1.60;0.27;;;23.70;61.70;;;;;;6095058;23;20710;-93
2023/08/26 14:44:54;;;;;;;1.88;0.30;;;23.60;65.00;;;;;;6098434;23;20405;-93
2023/08/26 14:47:20;;;;;;;1.33;0.50;;;23.50;64.90;;;;;;6095743;23;20383;-94
2023/08/26 14:49:45;;;;;;;2.37;0.50;;;23.30;63.20;;;;;;6097679;23;20371;-93
2023/08/26 14:52:11;;;;;;;1.37;0.40;;;23.40;67.50;;;;;;6096630;23;20379;-93
2023/08/26 14:54:37;;;;;;;2.70;1.10;;;23.20;67.00;;;;;;6122203;23;20375;-93
2023/08/26 14:57:03;;;;;;;1.95;1.48;;;22.90;75.30;;;;;;6098164;23;20401;-94
2023/08/26 14:59:29;;;;;;;2.72;1.30;;;22.80;69.80;;;;;;6095919;23;20744;-92
2023/08/26 15:01:58;;;;;;;2.13;1.20;;;22.80;78.10;;;;;;6098008;23;20367;-92
2023/08/26 15:04:24;;;;;;;1.90;1.35;;;22.70;81.90;;;;;;6119888;23;20402;-93
2023/08/26 15:06:49;;;;;;;4.10;1.70;;;22.80;74.50;;;;;;6097879;23;20562;-93
2023/08/26 15:09:15;;;;;;;2.03;1.27;;;22.70;76.50;;;;;;6095908;23;20855;-93
2023/08/26 15:11:41;;;;;;;2.03;1.70;;;22.60;73.30;;;;;;6097615;23;20851;-92
2023/08/26 15:14:07;;;;;;;2.10;1.40;;;22.50;82.20;;;;;;6097047;23;20383;-93
2023/08/26 15:16:33;;;;;;;2.97;1.40;;;22.50;83.40;;;;;;6096264;23;20427;-93
2023/08/26 15:18:59;;;;;;;2.50;1.33;;;22.50;84.30;;;;;;6099732;23;20381;-93
2023/08/26 15:21:24;;;;;;;3.10;1.60;;;22.40;84.90;;;;;;6095504;23;20867;-93
2023/08/26 15:23:51;;;;;;;2.10;1.38;;;22.40;85.50;;;;;;6098330;23;20394;-94
2023/08/26 15:26:18;;;;;;;2.35;1.30;;;22.30;92.20;;;;;;6095196;23;20378;-93
2023/08/26 15:28:45;;;;;;;2.58;1.40;;;22.10;91.30;;;;;;6099642;23;20375;-92
2023/08/26 15:31:11;;;;;;;2.25;0.82;;;21.90;90.60;;;;;;6098009;23;20643;-93
2023/08/26 15:33:37;;;;;;;1.85;0.70;;;21.90;90.70;;;;;;6098914;23;21016;-93
2023/08/26 15:36:03;;;;;;;1.98;0.90;;;21.90;92.60;;;;;;6099361;23;20756;-92
2023/08/26 15:38:29;;;;;;;2.13;0.50;;;21.90;92.40;;;;;;6096947;23;20727;-93
2023/08/26 15:40:57;;;;;;;1.83;0.43;;;21.90;92.60;;;;;;6099374;23;20391;-93
2023/08/26 15:43:24;;;;;;;1.10;0.50;;;21.90;89.60;;;;;;6097148;23;20375;-93
2023/08/26 15:45:50;;;;;;;1.47;0.40;;;22.00;84.10;;;;;;6099518;23;20375;-93
2023/08/26 15:48:17;;;;;;;2.63;0.50;;;21.80;90.40;;;;;;6097404;23;20807;-94
2023/08/26 15:50:43;;;;;;;2.17;0.50;;;21.70;91.10;;;;;;6099137;23;20375;-93
2023/08/26 15:53:13;;;;;;;1.98;0.55;;;21.60;92.90;;;;;;6098614;23;20435;-93
2023/08/26 15:55:38;;;;;;;1.77;0.60;;;21.60;93.30;;;;;;6097604;23;20567;-93
2023/08/26 15:58:06;;;;;;;2.10;0.53;;;21.60;95.70;;;;;;6099410;23;20375;-93
2023/08/26 16:00:31;;;;;;;1.47;0.57;;;21.60;94.30;;;;;;6097151;23;20371;-93
2023/08/26 16:02:57;;;;;;;1.90;0.60;;;21.80;98.30;;;;;;6098664;23;20755;-93
2023/08/26 16:05:23;;;;;;;1.20;0.80;;;21.50;96.10;;;;;;6096892;23;20403;-93
2023/08/26 16:07:48;;;;;;;1.23;0.30;;;21.50;98.50;;;;;;6123590;23;20524;-93
2023/08/26 16:10:14;;;;;;;1.83;0.30;;;21.50;98.80;;;;;;6122674;23;20406;-92
2023/08/26 16:12:40;;;;;;;1.65;0.60;;;21.40;92.30;;;;;;6098291;23;20410;-93
2023/08/26 16:15:06;;;;;;;1.77;0.40;;;21.30;92.70;;;;;;6123555;23;20383;-92
2023/08/26 16:17:31;;;;;;;2.53;0.33;;;21.20;93.60;;;;;;6097006;23;20862;-92
2023/08/26 16:19:58;;;;;;;2.00;0.47;;;21.10;91.10;;;;;;6098874;23;20462;-93
2023/08/26 16:22:24;;;;;;;1.77;0.40;;;21.20;92.30;;;;;;6096655;23;20375;-92
2023/08/26 16:24:49;;;;;;;1.52;0.50;;;21.20;92.40;;;;;;6123177;23;20410;-92
2023/08/26 16:27:15;;;;;;;1.93;0.80;;;21.30;93.00;;;;;;6096766;23;20379;-92
2023/08/26 16:29:41;;;;;;;1.42;0.60;;;22.20;94.50;;;;;;6098855;23;20394;-92
2023/08/26 16:32:06;;;;;;;3.80;1.40;;;21.50;88.10;;;;;;6098028;23;20705;-92
2023/08/26 16:34:34;;;;;;;3.50;2.70;;;21.70;87.40;;;;;;6122007;23;20855;-92
2023/08/26 16:37:00;;;;;;;2.88;1.23;;;21.40;92.70;;;;;;6099375;23;20374;-92
2023/08/26 16:39:25;;;;;;;2.45;0.60;;;21.20;95.20;;;;;;6096928;23;20376;-92
2023/08/26 16:41:51;;;;;;;1.97;0.50;;;21.40;91.70;;;;;;6098584;23;20387;-93
2023/08/26 16:44:17;;;;;;;1.40;0.40;;;21.20;91.60;;;;;;6097086;23;20399;-92
2023/08/26 16:46:43;;;;;;;1.75;0.68;;;21.30;96.30;;;;;;6098553;23;20885;-93
2023/08/26 16:49:09;;;;;;;3.00;0.70;;;21.20;94.70;;;;;;6096514;23;20385;-92
2023/08/26 16:51:34;;;;;;;1.90;0.60;;;21.60;96.00;;;;;;6097783;23;20375;-92
2023/08/26 16:54:00;;;;;;;2.43;0.50;;;21.00;99.70;;;;;;6123200;23;20367;-92
2023/08/26 16:56:27;;;;;;;2.67;0.60;;;21.30;99.40;;;;;;6097102;23;20859;-92
2023/08/26 16:58:53;;;;;;;2.50;1.00;;;21.30;98.30;;;;;;6098883;23;20375;-93
2023/08/26 17:01:19;;;;;;;2.43;0.60;;;20.80;99.90;;;;;;6096315;23;20918;-93
2023/08/26 17:03:45;;;;;;;2.60;0.75;;;21.10;99.90;;;;;;6093594;23;20405;-92
2023/08/26 17:06:14;;;;;;;2.57;1.03;;;20.80;99.90;;;;;;6116481;23;20395;-93
2023/08/26 17:08:39;;;;;;;2.63;0.73;;;20.80;99.90;;;;;;6094267;23;20830;-91
2023/08/26 17:11:05;;;;;;;3.40;1.00;;;20.90;99.90;;;;;;6093370;23;20446;-92
2023/08/26 17:13:31;;;;;;;3.50;0.73;;;21.00;99.90;;;;;;6092128;23;20381;-91
2023/08/26 17:15:57;;;;;;;1.45;0.63;;;21.20;99.90;;;;;;6093576;23;20864;-92
2023/08/26 17:18:24;;;;;;;2.93;0.90;;;20.70;99.90;;;;;;6091441;23;20857;-91
2023/08/26 17:20:50;;;;;;;3.47;0.88;;;20.40;99.90;;;;;;6117607;23;20406;-92
2023/08/26 17:23:15;;;;;;;2.65;0.82;;;21.00;99.90;;;;;;6091727;23;20369;-92
2023/08/26 17:25:42;;;;;;;2.58;0.70;;;20.60;99.90;;;;;;6093707;23;20416;-91
2023/08/26 17:28:08;;;;;;;2.45;0.98;;;20.70;99.90;;;;;;6116416;23;20379;-91
2023/08/26 17:30:34;;;;;;;2.60;1.50;;;20.70;99.90;;;;;;6092840;23;20462;-92
2023/08/26 17:33:00;;;;;;;3.50;1.77;;;21.50;99.90;;;;;;6093202;23;20431;-92
2023/08/26 17:35:26;;;;;;;4.03;3.42;;;20.50;99.90;;;;;;6091837;23;20379;-93
2023/08/26 17:37:52;;;;;;;3.10;1.98;;;20.40;99.90;;;;;;6093843;23;20475;-93
2023/08/26 17:40:19;;;;;;;2.80;1.33;;;20.90;99.90;;;;;;6116158;23;20401;-93
2023/08/26 17:42:48;;;;;;;7.20;4.93;;;20.20;99.90;;;;;;6117893;23;20376;-92
2023/08/26 17:45:14;;;;;;;8.32;7.07;;;20.10;99.90;;;;;;6091254;23;20408;-92
2023/08/26 17:47:40;;;;;;;4.72;3.10;;;20.00;99.90;;;;;;6093328;23;20915;-91
2023/08/26 17:50:06;;;;;;;8.40;7.63;;;20.10;99.90;;;;;;6117247;23;20460;-92
2023/08/26 17:52:32;;;;;;;3.28;1.38;;;19.90;99.90;;;;;;6091732;23;20441;-92
2023/08/26 17:54:59;;;;;;;3.15;0.60;;;19.90;99.90;;;;;;6117464;23;20372;-92
2023/08/26 17:57:24;;;;;;;3.10;1.10;;;19.90;99.90;;;;;;6090439;23;20369;-91
2023/08/26 17:59:50;;;;;;;3.20;2.43;;;19.90;99.90;;;;;;6093074;23;20427;-91
2023/08/26 18:02:16;;;;;;;3.63;3.33;;;19.80;99.90;;;;;;6091384;23;20373;-91
2023/08/26 18:04:42;;;;;;;5.00;3.88;;;19.70;99.90;;;;;;6097697;23;20830;-91
2023/08/26 18:07:08;;;;;;;1.53;0.50;;;19.50;99.90;;;;;;6095789;23;20394;-91
2023/08/26 18:09:34;;;;;;;2.50;1.70;;;19.90;99.90;;;;;;6097503;23;20434;-90
2023/08/26 18:12:00;;;;;;;2.70;0.93;;;19.50;99.90;;;;;;6097855;23;20954;-91
2023/08/26 18:14:26;;;;;;;1.65;0.60;;;19.70;99.90;;;;;;6120677;23;20399;-90
2023/08/26 18:16:52;;;;;;;3.63;3.33;;;19.20;99.90;;;;;;6122409;23;20399;-91
2023/08/26 18:19:18;;;;;;;3.20;1.90;;;19.20;99.90;;;;;;6120238;23;20378;-91
2023/08/26 18:21:44;;;;;;;4.50;3.17;;;19.00;99.90;;;;;;6122169;23;20759;-92
2023/08/26 18:24:09;;;;;;;2.63;1.80;;;19.20;99.90;;;;;;6120239;23;20398;-91
2023/08/26 18:26:35;;;;;;;2.30;1.10;;;18.90;99.90;;;;;;6122018;23;20466;-91
2023/08/26 18:29:02;;;;;;;2.83;1.02;;;18.70;99.90;;;;;;6121319;23;20375;-90
2023/08/26 18:31:28;;;;;;;2.67;0.77;;;18.60;99.90;;;;;;6120712;23;20689;-91
2023/08/26 18:33:56;;;;;;;2.75;1.05;;;18.50;99.90;;;;;;6097834;23;20441;-90
2023/08/26 18:36:22;;;;;;;3.03;1.10;;;18.40;99.90;;;;;;6095750;23;20376;-90
2023/08/26 18:38:48;;;;;;;3.08;0.90;;;18.60;99.90;;;;;;6121904;23;20503;-91
2023/08/26 18:41:14;;;;;;;4.57;1.00;;;18.50;99.90;;;;;;6096091;23;20379;-90
2023/08/26 18:43:40;;;;;;;2.70;1.00;;;18.30;99.90;;;;;;6097860;23;20431;-91
2023/08/26 18:46:05;;;;;;;4.43;1.15;;;18.30;99.90;;;;;;6120626;23;20743;-90
2023/08/26 18:48:31;;;;;;;3.17;1.17;;;17.90;99.90;;;;;;6096837;23;20386;-89
2023/08/26 18:50:58;;;;;;;2.97;1.15;;;18.10;99.90;;;;;;6121562;23;20712;-90
2023/08/26 18:53:24;;;;;;;2.63;1.48;;;17.90;99.90;;;;;;6120442;23;20378;-90
2023/08/26 18:55:51;;;;;;;2.78;1.25;;;17.90;99.90;;;;;;6121191;23;20743;-90
2023/08/26 18:58:17;;;;;;;2.80;1.30;;;17.50;99.90;;;;;;6118177;23;20367;-91
2023/08/26 19:00:44;;;;;;;2.60;1.20;;;17.40;99.90;;;;;;6097607;23;20382;-91
2023/08/26 19:03:10;;;;;;;1.85;1.20;;;17.30;99.90;;;;;;6097355;23;20379;-92
2023/08/26 19:05:36;;;;;;;2.57;1.80;;;17.20;99.90;;;;;;6122975;23;20720;-90
2023/08/26 19:08:02;;;;;;;1.75;1.00;;;17.10;99.90;;;;;;6097885;23;20375;-91
2023/08/26 19:10:28;;;;;;;3.10;1.77;;;17.00;99.90;;;;;;6096538;23;20425;-90
2023/08/26 19:12:54;;;;;;;4.05;1.90;;;16.80;99.90;;;;;;6098196;23;20768;-90
2023/08/26 19:15:19;;;;;;;2.73;1.60;;;16.80;99.90;;;;;;6096464;23;20720;-89
2023/08/26 19:17:45;;;;;;;3.20;2.10;;;16.70;99.90;;;;;;6124030;23;20893;-90
2023/08/26 19:20:11;;;;;;;3.10;2.27;;;16.60;99.90;;;;;;6096526;23;20375;-91
2023/08/26 19:22:40;;;;;;;4.20;2.20;;;16.60;99.90;;;;;;6098774;23;20707;-91
2023/08/26 19:25:06;;;;;;;4.88;3.50;;;16.50;99.90;;;;;;6122345;23;20723;-91
2023/08/26 19:27:32;;;;;;;4.50;3.28;;;16.40;99.90;;;;;;6097350;23;20662;-90
2023/08/26 19:30:00;;;;;;;4.78;4.03;;;16.40;99.90;;;;;;6123939;23;20426;-89
2023/08/26 19:32:26;;;;;;;4.05;3.20;;;16.20;99.90;;;;;;6120958;23;20375;-89
2023/08/26 19:34:51;;;;;;;3.50;3.03;;;16.50;99.90;;;;;;6098852;23;20379;-88
2023/08/26 19:37:17;;;;;;;4.13;3.05;;;16.10;99.90;;;;;;6096464;23;20375;-90
2023/08/26 19:39:43;;;;;;;3.90;2.63;;;16.00;99.90;;;;;;6098442;23;20394;-90
2023/08/26 19:42:08;;;;;;;2.85;2.55;;;15.90;99.90;;;;;;6121074;23;20517;-89
2023/08/26 19:44:34;;;;;;;3.87;2.70;;;15.90;99.90;;;;;;6097852;23;20720;-90
2023/08/26 19:46:59;;;;;;;3.97;3.05;;;15.80;99.90;;;;;;6098310;23;20383;-89
2023/08/26 19:49:25;;;;;;;3.50;2.53;;;15.80;99.90;;;;;;6097214;23;20437;-90
2023/08/26 19:51:52;;;;;;;3.00;2.70;;;15.70;99.90;;;;;;6122810;23;20378;-91
2023/08/26 19:54:18;;;;;;;3.15;2.50;;;15.70;99.90;;;;;;6097261;23;20445;-90
2023/08/26 19:56:43;;;;;;;3.53;2.90;;;15.70;99.90;;;;;;6124121;23;20386;-90
2023/08/26 19:59:09;;;;;;;3.47;2.30;;;15.60;99.90;;;;;;6097551;23;20402;-91
2023/08/26 20:01:37;;;;;;;4.27;3.13;;;15.90;99.90;;;;;;6123229;23;20380;-91
2023/08/26 20:04:03;;;;;;;3.00;2.75;;;15.70;99.90;;;;;;6097953;23;20403;-90
2023/08/26 20:06:29;;;;;;;3.93;3.50;;;15.50;99.90;;;;;;6097852;23;20374;-91
2023/08/26 20:08:55;;;;;;;4.72;4.32;;;15.50;99.90;;;;;;6098617;23;20449;-90
2023/08/26 20:11:22;;;;;;;7.30;5.55;;;15.40;99.90;;;;;;6121773;23;20848;-91
2023/08/26 20:13:49;;;;;;;7.87;6.73;;;15.40;99.90;;;;;;6099465;23;20364;-90
2023/08/26 20:16:15;;;;;;;7.95;7.25;;;15.60;99.90;;;;;;6121871;23;20379;-88
2023/08/26 20:18:40;;;;;;;8.47;7.10;;;15.70;99.90;;;;;;6124247;23;20367;-90
2023/08/26 20:21:06;;;;;;;6.80;6.20;;;15.20;99.90;;;;;;6097775;23;20461;-91
2023/08/26 20:23:32;;;;;;;6.17;5.67;;;15.10;99.90;;;;;;6099969;23;20708;-91
2023/08/26 20:25:59;;;;;;;7.37;6.67;;;15.10;99.90;;;;;;6098578;23;20866;-90
2023/08/26 20:28:26;;;;;;;7.82;7.03;;;15.10;99.90;;;;;;6122324;23;20434;-89
2023/08/26 20:31:06;;;;;;;9.70;8.13;;;15.70;99.90;;;;;;6123958;23;20455;-90
2023/08/26 20:33:32;;;;;;;7.47;6.78;;;14.90;99.90;;;;;;6097622;23;20426;-89
2023/08/26 20:36:02;;;;;;;5.85;5.35;;;15.10;99.90;;;;;;6098271;23;20379;-89
2023/08/26 20:38:32;;;;;;;7.53;6.67;;;14.80;99.90;;;;;;6097054;23;20417;-89
2023/08/26 20:41:00;;;;;;;7.05;6.35;;;14.90;99.90;;;;;;6121679;23;20379;-90
2023/08/26 20:43:26;;;;;;;6.47;5.80;;;15.10;99.90;;;;;;6123137;23;20405;-89
2023/08/26 20:45:51;;;;;;;8.85;7.72;;;14.90;99.90;;;;;;6121645;23;20446;-89
2023/08/26 20:48:17;;;;;;;7.15;6.55;;;15.00;99.90;;;;;;6098956;23;20387;-89
2023/08/26 20:50:43;;;;;;;7.60;6.90;;;14.80;99.90;;;;;;6095316;23;20406;-90
2023/08/26 20:53:08;;;;;;;7.07;6.37;;;14.80;99.90;;;;;;6098193;23;20367;-88
2023/08/26 20:55:34;;;;;;;9.07;8.38;;;14.60;99.90;;;;;;6120252;23;20886;-88
2023/08/26 20:58:02;;;;;;;7.80;7.10;;;14.50;99.90;;;;;;6097482;23;20380;-88
2023/08/26 21:00:28;;;;;;;7.03;6.43;;;14.40;99.90;;;;;;6121482;23;20387;-88
2023/08/26 21:02:54;;;;;;;7.22;6.55;;;14.60;99.90;;;;;;6121017;23;20409;-88
2023/08/26 21:05:19;;;;;;;8.65;7.82;;;14.80;99.90;;;;;;6097705;23;20399;-88
2023/08/26 21:07:45;;;;;;;9.73;8.83;;;14.30;99.90;;;;;;6095711;23;20454;-88
2023/08/26 21:10:11;;;;;;;7.72;7.03;;;14.30;99.90;;;;;;6122362;23;20425;-89
2023/08/26 21:12:36;;;;;;;8.52;7.78;;;14.20;99.90;;;;;;6119762;23;20851;-88
2023/08/26 21:15:02;;;;;;;8.47;7.67;;;14.20;99.90;;;;;;6122134;23;20379;-89
2023/08/26 21:17:28;;;;;;;8.18;7.47;;;14.20;99.90;;;;;;6095785;23;20371;-88
2023/08/26 21:19:54;;;;;;;8.40;7.70;;;14.10;99.90;;;;;;6097100;23;20386;-88
2023/08/26 21:22:20;;;;;;;8.23;7.53;;;14.10;99.90;;;;;;6121694;23;20371;-88
2023/08/26 21:24:45;;;;;;;10.98;9.95;;;14.10;99.90;;;;;;6095796;23;20521;-88
2023/08/26 21:27:11;;;;;;;10.27;9.38;;;14.00;99.90;;;;;;6121892;23;20371;-88
2023/08/26 21:29:36;;;;;;;9.83;9.03;;;13.90;99.90;;;;;;6095596;23;20375;-89
2023/08/26 21:32:02;;;;;;;10.27;9.38;;;14.30;99.90;;;;;;6097254;23;20434;-88
2023/08/26 21:34:28;;;;;;;9.87;9.07;;;13.90;99.90;;;;;;6095220;23;20885;-89
2023/08/26 21:36:53;;;;;;;13.13;12.07;;;13.90;99.90;;;;;;6121716;23;20766;-88
2023/08/26 21:39:19;;;;;;;11.67;10.67;;;13.80;99.90;;;;;;6096400;23;20402;-88
2023/08/26 21:41:44;;;;;;;10.70;9.80;;;14.20;99.90;;;;;;6120677;23;20375;-88
2023/08/26 21:44:10;;;;;;;8.97;8.20;;;13.80;99.90;;;;;;6121344;23;20481;-87
2023/08/26 21:46:35;;;;;;;8.77;8.00;;;14.10;99.90;;;;;;6095528;23;20431;-88
2023/08/26 21:49:01;;;;;;;11.00;10.13;;;13.80;99.90;;;;;;6121645;23;20761;-88
2023/08/26 21:51:27;;;;;;;10.10;9.20;;;13.80;99.90;;;;;;6095173;23;20937;-89
2023/08/26 21:53:53;;;;;;;9.43;8.65;;;13.70;99.90;;;;;;6121420;23;20410;-88
2023/08/26 21:56:18;;;;;;;8.77;7.97;;;13.70;99.90;;;;;;6095050;23;20367;-88
2023/08/26 21:58:44;;;;;;;9.13;8.32;;;13.60;99.90;;;;;;6121482;23;20401;-88
2023/08/26 22:01:09;;;;;;;8.97;8.17;;;13.60;99.90;;;;;;6120557;23;20383;-87
2023/08/26 22:03:35;;;;;;;10.25;9.25;;;13.60;99.90;;;;;;6095255;23;20386;-87
2023/08/26 22:06:00;;;;;;;8.17;7.43;;;13.60;99.90;;;;;;6097148;23;20745;-88
2023/08/26 22:08:26;;;;;;;8.43;7.78;;;13.90;99.90;;;;;;6094907;23;20367;-88
2023/08/26 22:10:52;;;;;;;9.20;8.50;;;13.90;99.90;;;;;;6121750;23;20379;-88
2023/08/26 22:13:19;;;;;;;9.53;8.73;;;13.50;99.90;;;;;;6119532;23;20398;-88
2023/08/26 22:15:46;;;;;;;8.60;7.90;;;13.50;99.90;;;;;;6121467;23;20422;-88
2023/08/26 22:18:12;;;;;;;8.90;8.20;;;13.50;99.90;;;;;;6120216;23;20879;-88
2023/08/26 22:20:39;;;;;;;8.10;7.40;;;13.50;99.90;;;;;;6120599;23;20382;-89
2023/08/26 22:23:06;;;;;;;7.18;6.68;;;13.50;99.90;;;;;;6120882;23;20941;-88
2023/08/26 22:25:32;;;;;;;8.27;7.57;;;13.40;99.90;;;;;;6119674;23;20395;-88
2023/08/26 22:27:57;;;;;;;9.27;8.50;;;13.40;99.90;;;;;;6097002;23;20371;-88
2023/08/26 22:30:23;;;;;;;8.53;7.80;;;13.50;99.90;;;;;;6094884;23;20867;-88
2023/08/26 22:32:49;;;;;;;9.75;8.88;;;13.30;99.90;;;;;;6096756;23;20466;-88
2023/08/26 22:35:14;;;;;;;6.70;6.20;;;13.30;99.90;;;;;;6095173;23;20418;-86
2023/08/26 22:37:40;;;;;;;8.80;8.10;;;13.30;99.90;;;;;;6096732;23;20763;-88